sensor_id;sensor_type;location;lat;lon;timestamp;P1;durP1;ratioP1;P2;durP2;ratioP2
31010;SDS011;26395;53.412;19.598;2023-03-01T00:13:31;49.70;;;21.70;;
31010;SDS011;26395;53.412;19.598;2023-03-01T00:28:34;37.90;;;16.20;;
31010;SDS011;26395;53.412;19.598;2023-03-01T00:43:38;41.20;;;18.80;;
31010;SDS011;26395;53.412;19.598;2023-03-01T00:58:41;63.90;;;21.80;;
31010;SDS011;26395;53.412;19.598;2023-03-01T01:13:45;46.40;;;20.20;;
31010;SDS011;26395;53.412;19.598;2023-03-01T01:28:49;33.00;;;14.10;;
31010;SDS011;26395;53.412;19.598;2023-03-01T01:59:17;41.80;;;16.70;;
31010;SDS011;26395;53.412;19.598;2023-03-01T02:14:20;43.30;;;16.60;;
31010;SDS011;26395;53.412;19.598;2023-03-01T02:29:24;47.60;;;16.50;;
31010;SDS011;26395;53.412;19.598;2023-03-01T02:44:27;29.30;;;13.60;;
31010;SDS011;26395;53.412;19.598;2023-03-01T02:59:31;35.50;;;13.40;;
31010;SDS011;26395;53.412;19.598;2023-03-01T03:14:43;31.40;;;13.30;;
31010;SDS011;26395;53.412;19.598;2023-03-01T03:29:46;27.60;;;13.00;;
31010;SDS011;26395;53.412;19.598;2023-03-01T03:44:49;22.40;;;11.30;;
31010;SDS011;26395;53.412;19.598;2023-03-01T03:59:53;29.10;;;12.50;;
31010;SDS011;26395;53.412;19.598;2023-03-01T04:14:56;26.40;;;13.10;;
31010;SDS011;26395;53.412;19.598;2023-03-01T04:29:59;35.90;;;13.30;;
31010;SDS011;26395;53.412;19.598;2023-03-01T04:45:03;33.50;;;15.10;;
31010;SDS011;26395;53.412;19.598;2023-03-01T05:00:16;41.50;;;16.80;;
31010;SDS011;26395;53.412;19.598;2023-03-01T05:15:28;38.30;;;16.50;;
31010;SDS011;26395;53.412;19.598;2023-03-01T05:30:33;41.80;;;18.00;;
31010;SDS011;26395;53.412;19.598;2023-03-01T05:45:38;37.60;;;18.80;;
31010;SDS011;26395;53.412;19.598;2023-03-01T06:00:43;41.80;;;17.10;;
31010;SDS011;26395;53.412;19.598;2023-03-01T06:15:48;42.80;;;18.90;;
31010;SDS011;26395;53.412;19.598;2023-03-01T06:30:51;120.10;;;46.80;;
31010;SDS011;26395;53.412;19.598;2023-03-01T06:45:55;106.20;;;50.30;;
31010;SDS011;26395;53.412;19.598;2023-03-01T07:00:58;58.10;;;25.10;;
31010;SDS011;26395;53.412;19.598;2023-03-01T07:16:02;71.80;;;27.30;;
31010;SDS011;26395;53.412;19.598;2023-03-01T07:31:06;110.70;;;34.20;;
31010;SDS011;26395;53.412;19.598;2023-03-01T07:46:09;61.60;;;26.40;;
31010;SDS011;26395;53.412;19.598;2023-03-01T08:01:15;67.80;;;28.30;;
31010;SDS011;26395;53.412;19.598;2023-03-01T08:16:22;45.40;;;21.60;;
31010;SDS011;26395;53.412;19.598;2023-03-01T08:31:33;81.30;;;35.90;;
31010;SDS011;26395;53.412;19.598;2023-03-01T08:46:40;33.60;;;17.30;;
31010;SDS011;26395;53.412;19.598;2023-03-01T09:01:44;34.20;;;17.90;;
31010;SDS011;26395;53.412;19.598;2023-03-01T09:16:47;42.00;;;19.90;;
31010;SDS011;26395;53.412;19.598;2023-03-01T09:31:51;40.20;;;18.20;;
31010;SDS011;26395;53.412;19.598;2023-03-01T09:46:58;42.60;;;19.60;;
31010;SDS011;26395;53.412;19.598;2023-03-01T10:02:07;28.30;;;15.60;;
31010;SDS011;26395;53.412;19.598;2023-03-01T10:33:11;55.00;;;28.30;;
31010;SDS011;26395;53.412;19.598;2023-03-01T10:48:21;121.50;;;54.40;;
31010;SDS011;26395;53.412;19.598;2023-03-01T11:18:34;32.80;;;19.60;;
31010;SDS011;26395;53.412;19.598;2023-03-01T13:03:36;22.80;;;12.10;;
31010;SDS011;26395;53.412;19.598;2023-03-01T13:19:16;18.40;;;11.80;;
31010;SDS011;26395;53.412;19.598;2023-03-01T13:34:42;17.50;;;10.00;;
31010;SDS011;26395;53.412;19.598;2023-03-01T14:05:05;33.50;;;19.40;;
31010;SDS011;26395;53.412;19.598;2023-03-01T14:20:14;37.20;;;20.40;;
31010;SDS011;26395;53.412;19.598;2023-03-01T14:35:23;26.40;;;14.60;;
31010;SDS011;26395;53.412;19.598;2023-03-01T14:50:32;19.80;;;11.10;;
31010;SDS011;26395;53.412;19.598;2023-03-01T15:05:37;108.90;;;57.00;;
31010;SDS011;26395;53.412;19.598;2023-03-01T15:20:43;78.90;;;53.90;;
31010;SDS011;26395;53.412;19.598;2023-03-01T15:35:51;123.20;;;77.60;;
31010;SDS011;26395;53.412;19.598;2023-03-01T15:50:57;88.50;;;40.00;;
31010;SDS011;26395;53.412;19.598;2023-03-01T16:06:02;125.70;;;51.70;;
31010;SDS011;26395;53.412;19.598;2023-03-01T16:21:06;150.50;;;68.60;;
31010;SDS011;26395;53.412;19.598;2023-03-01T16:36:10;139.90;;;71.10;;
31010;SDS011;26395;53.412;19.598;2023-03-01T16:51:15;164.10;;;89.40;;
31010;SDS011;26395;53.412;19.598;2023-03-01T17:06:20;165.40;;;74.30;;
31010;SDS011;26395;53.412;19.598;2023-03-01T17:21:26;457.50;;;156.40;;
31010;SDS011;26395;53.412;19.598;2023-03-01T17:36:31;643.60;;;232.30;;
31010;SDS011;26395;53.412;19.598;2023-03-01T17:51:36;279.20;;;112.50;;
31010;SDS011;26395;53.412;19.598;2023-03-01T18:06:42;263.70;;;104.00;;
31010;SDS011;26395;53.412;19.598;2023-03-01T18:21:52;314.40;;;119.70;;
31010;SDS011;26395;53.412;19.598;2023-03-01T18:36:56;130.00;;;56.60;;
31010;SDS011;26395;53.412;19.598;2023-03-01T18:52:11;543.60;;;230.10;;
31010;SDS011;26395;53.412;19.598;2023-03-01T19:07:16;492.00;;;210.50;;
31010;SDS011;26395;53.412;19.598;2023-03-01T19:22:20;517.20;;;224.50;;
31010;SDS011;26395;53.412;19.598;2023-03-01T19:37:24;647.60;;;296.10;;
31010;SDS011;26395;53.412;19.598;2023-03-01T19:52:29;503.00;;;218.50;;
31010;SDS011;26395;53.412;19.598;2023-03-01T20:07:33;287.90;;;121.30;;
31010;SDS011;26395;53.412;19.598;2023-03-01T20:22:40;339.40;;;130.30;;
31010;SDS011;26395;53.412;19.598;2023-03-01T20:37:45;523.10;;;212.80;;
31010;SDS011;26395;53.412;19.598;2023-03-01T20:52:51;491.10;;;191.00;;
31010;SDS011;26395;53.412;19.598;2023-03-01T21:07:57;674.60;;;282.60;;
31010;SDS011;26395;53.412;19.598;2023-03-01T21:23:04;529.30;;;220.30;;
31010;SDS011;26395;53.412;19.598;2023-03-01T21:38:08;688.90;;;302.70;;
31010;SDS011;26395;53.412;19.598;2023-03-01T21:53:14;405.40;;;161.40;;
31010;SDS011;26395;53.412;19.598;2023-03-01T22:08:19;304.30;;;120.60;;
31010;SDS011;26395;53.412;19.598;2023-03-01T22:23:22;218.60;;;91.50;;
31010;SDS011;26395;53.412;19.598;2023-03-01T22:38:27;192.90;;;72.20;;
31010;SDS011;26395;53.412;19.598;2023-03-01T22:53:30;202.10;;;73.00;;
31010;SDS011;26395;53.412;19.598;2023-03-01T23:08:34;141.90;;;54.60;;
31010;SDS011;26395;53.412;19.598;2023-03-01T23:23:37;235.70;;;83.20;;
31010;SDS011;26395;53.412;19.598;2023-03-01T23:38:41;107.00;;;44.30;;
31010;SDS011;26395;53.412;19.598;2023-03-01T23:53:45;114.00;;;40.20;;
